Security, Texas
Current Conditions -  °F | °C
As of 2:35 PM on Friday 28 Nov 2014 (Local Time) from K6R3 Reporting Station
Overcast Overcast  
Wind Chill: 68°   Ceiling: 3800
Heat Index: 68°   Visibility: 10mi
Dew Point: 56°   Wind: 10mph
Humidity: 66%   Direction: 180°S
Pressure: 30.21"   Gusts: NA
Location:  30.2945°N, 94.9711°W
Report Text: K6R3 282035Z AUTO 18009KT 10SM BKN038 OVC048 20/13 A3021 RMK AO2 T01980133
Loading
Personal Weather Stations






























Interactive Weather Map New forecast layout! Learn more

10-Day Weather Forecast

Advertisements
Track Severe Weather on mobile